Kezdőlap
METAR-TAF:

METAR-TAF

Repülőterek :

Kunming, Kína

földrajzi szélesség: 25-01N, földrajzi hosszúság: 102-41E, magasság: 1892 m

Jelenlegi meteorológiai megfigyelések

A jelentés 29 perccel ezelõtt készült, 06:00 UTC
Nyugat-délnyugati szél 23 kt
Hőmérséklet 18°C
Páratartalom 30%
Légköri nyomás 1017 hPa
Látótávolság 10 km, vagy több
Kevés felhő 2600 lábon

METAR: ZPPP 230600Z 24012MPS 9999 FEW026 18/00 Q1017 NOSIG

Idő: 14:29 (06:29 UTC)

Előrejelzés

A jelentés 5 órával és 13 perccel ezelõtt készült, 01:16 UTC
Az előrejelzés 23-én 06 óra UTC és 24-én 06 óra UTC között érvényes
Délnyugati szél 23 kt széllökések: 33 kt
Látótávolság 10 km, vagy több
Szórványos felhőzet 3000 lábon
23-én 11 óra UTC és 23-én 12 óra UTC között fokozatosan kialakuló
Délnyugati szél 12 kt

TAF: ZPPP 230116Z 2306/2406 22012G17MPS 9999 SCT030 TX19/2308Z TN06/2323Z BECMG 2311/2312 22006MPS

Meteorológiai megfigyelések és előrejelzések több, mint 4000 repülőtéren (METAR és TAF jelentéseket).

A térképen piros és sárga pontok jelzik az elérhető meteorológiai állomásokat.

Mozgassa az egeret a pont fölött, hogy megjelenjen az állomás neve.

Azután kattintson az időjárási megfigyelések és előrejelzések megtekintéséhez.

A térkép megváltoztatása: kattintson a fekete keresztel jelölt zöld gombra ráközelítéshez, a vonallal jelölt zöld gombra távolításhoz, vagy a zöld nyilakra a szomszédos térképek eléréséhez.


METAR-TAF: